Time;durP1;ratioP1;P1;durP2;ratioP2;P2;SDS_P1;SDS_P2;PMS_P1;PMS_P2;Temp;Humidity;BMP_temperature;BMP_pressure;BME280_temperature;BME280_humidity;BME280_pressure;Samples;Min_cycle;Max_cycle;Signal;HPM_P1;HPM_P2
2023/06/23 00:01:34;;;;;;;;;5.50;5.50;;;;;21.69;63.83;101819.88;4946906;28;45407;-75
2023/06/23 00:03:59;;;;;;;;;7.75;7.00;;;;;21.63;63.88;101818.44;4942492;28;46409;-74
2023/06/23 00:06:25;;;;;;;;;7.00;5.25;;;;;21.65;63.64;101824.63;4941405;28;45465;-75
2023/06/23 00:08:50;;;;;;;;;8.50;7.50;;;;;21.67;63.89;101823.66;4942476;28;45479;-74
2023/06/23 00:11:16;;;;;;;;;5.50;5.00;;;;;21.67;63.91;101815.50;4941548;28;46265;-74
2023/06/23 00:13:41;;;;;;;;;8.00;8.00;;;;;21.68;64.30;101822.69;4942412;28;45427;-74
2023/06/23 00:16:07;;;;;;;;;9.00;8.50;;;;;21.58;63.74;101811.50;4940857;28;45372;-74
2023/06/23 00:18:35;;;;;;;;;10.25;7.75;;;;;21.64;64.14;101831.03;4941755;28;45498;-74
2023/06/23 00:21:03;;;;;;;;;10.25;9.25;;;;;21.60;64.12;101828.59;4942464;28;45502;-74
2023/06/23 00:23:30;;;;;;;;;8.00;8.00;;;;;21.57;64.19;101826.09;4942009;28;46119;-75
2023/06/23 00:25:55;;;;;;;;;7.50;7.50;;;;;21.60;64.14;101839.44;4942560;28;45324;-74
2023/06/23 00:28:21;;;;;;;;;8.75;8.75;;;;;21.59;64.62;101843.16;4942400;28;45369;-74
2023/06/23 00:30:46;;;;;;;;;8.25;7.25;;;;;21.51;64.53;101831.88;4942559;28;45287;-75
2023/06/23 00:33:12;;;;;;;;;9.00;7.00;;;;;21.52;64.29;101839.03;4941935;28;46047;-75
2023/06/23 00:35:38;;;;;;;;;10.00;8.00;;;;;21.43;63.92;101819.63;4944924;28;45359;-75
2023/06/23 00:38:03;;;;;;;;;8.75;7.50;;;;;21.52;63.98;101833.63;4940621;28;45506;-74
2023/06/23 00:40:29;;;;;;;;;13.00;8.50;;;;;21.54;64.24;101842.56;4942059;28;45264;-74
2023/06/23 00:42:54;;;;;;;;;7.00;7.00;;;;;21.52;64.43;101839.94;4941958;28;46456;-75
2023/06/23 00:45:21;;;;;;;;;8.50;7.25;;;;;21.48;64.57;101830.22;4941128;28;45328;-74
2023/06/23 00:47:47;;;;;;;;;6.00;5.75;;;;;21.51;64.53;101829.16;4939581;28;45750;-74
2023/06/23 00:50:15;;;;;;;;;8.00;7.25;;;;;21.51;64.51;101826.44;4932314;28;45604;-74
2023/06/23 00:52:52;;;;;;;;;8.00;6.75;;;;;21.46;64.30;101819.41;4937660;28;46045;-75
2023/06/23 00:55:20;;;;;;;;;7.50;7.50;;;;;21.44;64.27;101818.63;4941817;28;45547;-75
2023/06/23 00:57:47;;;;;;;;;8.00;8.00;;;;;21.50;64.89;101831.03;4940177;28;45525;-75
2023/06/23 01:00:17;;;;;;;;;9.00;7.50;;;;;21.37;64.39;101814.56;4957960;28;45489;-75
2023/06/23 01:02:42;;;;;;;;;6.75;6.75;;;;;21.43;64.70;101824.16;4943590;28;47202;-75
2023/06/23 01:05:09;;;;;;;;;5.75;5.75;;;;;21.39;64.90;101825.31;4941745;28;45299;-74
2023/06/23 01:08:10;;;;;;;;;7.50;6.25;;;;;21.37;65.32;101821.84;4941421;28;45365;-74
2023/06/23 01:10:43;;;;;;;;;7.00;7.00;;;;;21.39;65.42;101830.75;4936626;28;45530;-74
2023/06/23 01:13:27;;;;;;;;;6.00;6.00;;;;;21.29;65.00;101817.72;4941715;28;46377;-75
2023/06/23 01:15:59;;;;;;;;;9.75;8.00;;;;;21.32;65.35;101830.25;4941320;28;45642;-74
2023/06/23 01:18:47;;;;;;;;;7.00;7.00;;;;;21.32;64.92;101834.78;4941290;28;45267;-75
2023/06/23 01:21:17;;;;;;;;;6.75;6.75;;;;;21.33;65.42;101842.00;4941460;28;45431;-74
2023/06/23 01:24:04;;;;;;;;;7.75;7.75;;;;;21.36;65.45;101841.81;4941042;28;47069;-74
2023/06/23 01:26:39;;;;;;;;;7.00;7.00;;;;;21.33;65.14;101840.13;4937197;28;45359;-74
2023/06/23 01:29:08;;;;;;;;;9.50;7.75;;;;;21.28;65.67;101837.72;4941632;28;45296;-74
2023/06/23 01:31:39;;;;;;;;;7.00;6.75;;;;;21.31;65.67;101850.22;4939733;28;45815;-75
2023/06/23 01:34:08;;;;;;;;;10.50;9.50;;;;;21.14;65.52;101817.78;4941370;28;45346;-74
2023/06/23 01:36:49;;;;;;;;;6.50;6.00;;;;;21.25;65.32;101848.75;4941229;28;46480;-75
2023/06/23 01:39:18;;;;;;;;;9.75;6.00;;;;;21.24;65.41;101851.56;4927563;28;45340;-74
2023/06/23 01:41:56;;;;;;;;;9.00;7.75;;;;;21.17;65.75;101850.19;4928295;28;45459;-75
2023/06/23 01:44:24;;;;;;;;;9.25;7.25;;;;;21.12;66.03;101850.47;4941065;28;46581;-74
2023/06/23 01:46:55;;;;;;;;;7.50;7.50;;;;;21.16;66.02;101859.28;4928090;28;45283;-74
2023/06/23 01:49:30;;;;;;;;;7.00;6.50;;;;;21.14;65.75;101855.81;4934143;28;45348;-74
2023/06/23 01:51:57;;;;;;;;;6.75;6.75;;;;;21.04;66.45;101848.19;4940433;28;45338;-75
2023/06/23 01:54:24;;;;;;;;;7.50;7.50;;;;;21.04;66.36;101859.03;4954621;28;48697;-74
2023/06/23 01:56:51;;;;;;;;;6.75;6.75;;;;;21.07;66.32;101867.00;4940198;28;45622;-74
2023/06/23 01:59:19;;;;;;;;;6.75;6.75;;;;;20.98;66.14;101854.00;4938734;28;45486;-75
2023/06/23 02:01:46;;;;;;;;;7.25;5.00;;;;;21.05;65.87;101873.50;4942054;28;45466;-74
2023/06/23 02:04:14;;;;;;;;;8.00;7.00;;;;;21.04;65.93;101878.03;4940879;28;45462;-74
2023/06/23 02:06:41;;;;;;;;;10.00;8.00;;;;;20.99;66.05;101876.59;4930575;28;45542;-74
2023/06/23 02:09:23;;;;;;;;;7.75;7.50;;;;;20.90;66.37;101865.28;4943355;28;45366;-74
2023/06/23 02:11:49;;;;;;;;;7.25;7.25;;;;;20.86;66.01;101863.69;4936224;28;45553;-74
2023/06/23 02:14:16;;;;;;;;;10.00;7.75;;;;;20.95;66.40;101877.72;4936713;28;46742;-74
2023/06/23 02:16:43;;;;;;;;;7.75;7.00;;;;;20.88;66.06;101869.94;4934057;28;45621;-75
2023/06/23 02:19:09;;;;;;;;;4.50;4.50;;;;;20.87;66.27;101870.88;4940570;28;45454;-74
2023/06/23 02:21:36;;;;;;;;;8.00;6.50;;;;;20.88;66.08;101872.66;4936418;28;45879;-75
2023/06/23 02:24:04;;;;;;;;;7.25;7.25;;;;;20.91;66.50;101877.00;4940532;28;45369;-74
2023/06/23 02:26:30;;;;;;;;;7.75;7.00;;;;;20.94;66.53;101879.56;4940585;28;45797;-74
2023/06/23 02:28:56;;;;;;;;;10.00;9.00;;;;;20.92;65.97;101879.63;4940749;28;45402;-74
2023/06/23 02:31:23;;;;;;;;;6.50;5.50;;;;;20.89;66.08;101878.94;4940394;28;45363;-74
2023/06/23 02:33:50;;;;;;;;;6.25;6.25;;;;;20.83;66.06;101873.88;4940150;28;45559;-74
2023/06/23 02:36:20;;;;;;;;;7.00;7.00;;;;;20.83;65.86;101879.28;4942952;28;45542;-74
2023/06/23 02:38:48;;;;;;;;;6.00;5.75;;;;;20.75;66.10;101859.88;4951604;28;45480;-74
2023/06/23 02:41:16;;;;;;;;;8.00;7.25;;;;;20.73;66.25;101865.38;4937051;28;45463;-74
2023/06/23 02:43:50;;;;;;;;;6.25;6.00;;;;;20.82;66.18;101883.00;4926248;28;46933;-74
2023/06/23 02:46:18;;;;;;;;;8.75;7.00;;;;;20.75;66.18;101881.56;4938173;28;45468;-74
2023/06/23 02:48:47;;;;;;;;;4.50;4.50;;;;;20.71;65.63;101881.78;4940418;28;45361;-74
2023/06/23 02:51:15;;;;;;;;;7.00;6.75;;;;;20.73;65.75;101895.22;4938341;28;45907;-74
2023/06/23 02:53:47;;;;;;;;;7.00;7.00;;;;;20.74;66.26;101907.84;4940156;28;46450;-74
2023/06/23 02:56:20;;;;;;;;;6.25;4.25;;;;;20.68;65.79;101906.34;4938767;28;45947;-74
2023/06/23 02:58:48;;;;;;;;;6.75;5.75;;;;;20.78;65.83;101922.09;4951979;28;45364;-74
2023/06/23 03:01:16;;;;;;;;;5.75;5.75;;;;;20.71;65.63;101921.56;4944072;28;45339;-74
2023/06/23 03:03:42;;;;;;;;;8.75;6.75;;;;;20.65;66.03;101917.38;4938281;28;45356;-74
2023/06/23 03:06:18;;;;;;;;;5.00;5.00;;;;;20.65;66.11;101920.09;4938805;28;45329;-74
2023/06/23 03:08:45;;;;;;;;;8.00;5.75;;;;;20.68;66.21;101919.91;4933907;28;45400;-74
2023/06/23 03:11:11;;;;;;;;;8.00;7.00;;;;;20.61;66.20;101915.75;4942213;28;45490;-75
2023/06/23 03:13:36;;;;;;;;;8.25;7.25;;;;;20.63;66.17;101919.31;4945789;28;45448;-74
2023/06/23 03:16:08;;;;;;;;;6.00;6.00;;;;;20.63;65.86;101927.44;4943205;28;45493;-75
2023/06/23 03:18:36;;;;;;;;;7.00;6.00;;;;;20.57;65.83;101916.03;4942321;28;45481;-74
2023/06/23 03:21:05;;;;;;;;;7.25;6.25;;;;;20.58;66.22;101907.81;4942851;28;45501;-74
2023/06/23 03:23:32;;;;;;;;;7.25;6.75;;;;;20.58;65.82;101917.75;4941977;28;46985;-74
2023/06/23 03:26:00;;;;;;;;;8.00;7.75;;;;;20.62;65.95;101919.34;4943457;28;45458;-74
2023/06/23 03:28:30;;;;;;;;;7.00;6.25;;;;;20.55;66.15;101905.25;4941229;28;45431;-74
2023/06/23 03:31:12;;;;;;;;;6.75;6.25;;;;;20.56;65.90;101912.41;4942769;28;45394;-74
2023/06/23 03:33:43;;;;;;;;;10.00;8.25;;;;;20.48;66.31;101907.44;4941939;28;46681;-74
2023/06/23 03:36:14;;;;;;;;;7.50;6.00;;;;;20.50;66.61;101916.38;4940479;28;45514;-74
2023/06/23 03:38:47;;;;;;;;;7.00;6.75;;;;;20.54;66.32;101927.91;4931210;28;45458;-74
2023/06/23 03:41:13;;;;;;;;;8.00;8.00;;;;;20.52;66.25;101932.56;4940729;28;45637;-74
2023/06/23 03:43:50;;;;;;;;;8.50;8.25;;;;;20.53;65.85;101942.41;4947619;28;46402;-74
2023/06/23 03:46:24;;;;;;;;;8.50;8.50;;;;;20.44;66.09;101929.38;4941196;28;45415;-74
2023/06/23 03:48:54;;;;;;;;;8.25;6.00;;;;;20.44;66.03;101926.69;4938472;28;46217;-74
2023/06/23 03:51:21;;;;;;;;;6.75;5.75;;;;;20.37;65.89;101928.84;4938564;28;45540;-74
2023/06/23 03:53:50;;;;;;;;;9.00;8.00;;;;;20.47;66.46;101946.38;4942614;28;45391;-74
2023/06/23 03:56:17;;;;;;;;;7.75;7.75;;;;;20.46;66.76;101950.03;4941353;28;45482;-74
2023/06/23 03:58:44;;;;;;;;;7.50;7.00;;;;;20.48;66.51;101949.94;4942894;28;45386;-74
2023/06/23 04:01:10;;;;;;;;;8.50;7.75;;;;;20.45;66.46;101942.00;4947709;28;45365;-74
2023/06/23 04:03:38;;;;;;;;;9.75;8.25;;;;;20.45;66.70;101944.72;4941117;28;47260;-74
2023/06/23 04:06:07;;;;;;;;;7.75;6.75;;;;;20.36;66.80;101940.66;4942523;28;45524;-74
2023/06/23 04:08:34;;;;;;;;;6.50;6.50;;;;;20.35;66.44;101942.50;4941257;28;45403;-74
2023/06/23 04:11:01;;;;;;;;;7.25;6.00;;;;;20.41;66.75;101959.38;4941073;28;45496;-74
2023/06/23 04:13:28;;;;;;;;;11.00;8.25;;;;;20.41;66.66;101960.25;4948072;28;46416;-74
2023/06/23 04:15:56;;;;;;;;;8.75;7.50;;;;;20.34;66.65;101954.28;4940047;28;45463;-74
2023/06/23 04:18:24;;;;;;;;;9.00;8.00;;;;;20.38;67.07;101964.97;4940644;28;45440;-74
2023/06/23 04:20:53;;;;;;;;;6.25;6.25;;;;;20.40;66.64;101973.88;4937812;28;45510;-74
2023/06/23 04:23:20;;;;;;;;;5.00;5.00;;;;;20.32;67.08;101971.63;4922728;28;48097;-74
2023/06/23 04:25:48;;;;;;;;;6.50;6.50;;;;;20.33;66.98;101978.75;4942590;28;45330;-74
2023/06/23 04:28:17;;;;;;;;;8.50;7.25;;;;;20.30;66.89;101966.28;4942478;28;46568;-74
2023/06/23 04:30:44;;;;;;;;;9.75;6.25;;;;;20.27;67.30;101958.28;4942464;28;45524;-74
2023/06/23 04:33:10;;;;;;;;;7.25;7.00;;;;;20.28;67.46;101967.28;4941944;28;45454;-74
2023/06/23 04:35:36;;;;;;;;;10.00;7.50;;;;;20.26;67.27;101967.38;4942317;28;45453;-74
2023/06/23 04:38:14;;;;;;;;;8.00;8.00;;;;;20.25;67.20;101971.06;4942140;28;45379;-74
2023/06/23 04:41:01;;;;;;;;;6.75;6.25;;;;;20.24;67.77;101965.72;4942214;28;45509;-74
2023/06/23 04:43:37;;;;;;;;;8.50;7.50;;;;;20.27;67.68;101980.00;4933324;28;47278;-74
2023/06/23 04:46:31;;;;;;;;;8.25;7.00;;;;;20.27;67.50;101985.41;4946253;28;45602;-74
2023/06/23 04:49:01;;;;;;;;;7.25;6.75;;;;;20.20;67.62;101978.56;4939896;28;45431;-74
2023/06/23 04:51:34;;;;;;;;;6.75;6.25;;;;;20.20;67.75;101984.00;4940332;28;45565;-75
2023/06/23 04:54:07;;;;;;;;;7.00;5.00;;;;;20.24;68.34;101993.69;4941810;28;45885;-74
2023/06/23 04:56:36;;;;;;;;;6.00;5.75;;;;;19.95;68.40;101951.91;4929474;28;45702;-74
2023/06/23 04:59:05;;;;;;;;;5.75;5.75;;;;;20.14;68.53;101984.31;4927778;28;45530;-74
2023/06/23 05:01:33;;;;;;;;;6.50;6.50;;;;;20.24;68.24;102006.38;4941702;28;45418;-74
2023/06/23 05:04:00;;;;;;;;;8.00;6.75;;;;;20.24;68.24;102000.97;4941650;28;45511;-75
2023/06/23 05:06:28;;;;;;;;;5.00;5.00;;;;;20.22;68.41;101992.06;4941925;28;45263;-74
2023/06/23 05:08:56;;;;;;;;;9.00;7.50;;;;;20.11;68.77;101968.19;4940086;28;45482;-74
2023/06/23 05:11:23;;;;;;;;;6.50;5.50;;;;;20.23;68.58;101988.34;4940385;28;45470;-74
2023/06/23 05:13:51;;;;;;;;;4.00;4.00;;;;;20.24;68.67;101999.13;4941071;28;46296;-74
2023/06/23 05:16:17;;;;;;;;;5.75;5.75;;;;;20.23;68.75;101993.78;4941280;28;45579;-74
2023/06/23 05:18:45;;;;;;;;;7.00;6.00;;;;;20.26;68.80;101999.03;4939668;28;45614;-74
2023/06/23 05:21:13;;;;;;;;;7.00;5.75;;;;;20.33;68.29;102017.63;4941591;28;45591;-74
2023/06/23 05:23:41;;;;;;;;;6.00;5.25;;;;;20.28;68.58;102003.44;4941277;28;45446;-74
2023/06/23 05:26:08;;;;;;;;;6.25;6.25;;;;;20.27;68.40;102007.09;4929382;28;45296;-74
2023/06/23 05:28:36;;;;;;;;;7.00;5.00;;;;;20.37;68.87;102026.47;4939615;28;45463;-74
2023/06/23 05:31:03;;;;;;;;;5.00;4.50;;;;;20.36;68.52;102020.19;4941384;28;45570;-74
2023/06/23 05:33:34;;;;;;;;;6.00;6.00;;;;;20.36;68.71;102022.00;4940351;28;46264;-74
2023/06/23 05:36:01;;;;;;;;;7.25;6.75;;;;;20.37;68.67;102018.34;4941307;28;45811;-74
2023/06/23 05:38:30;;;;;;;;;6.00;5.00;;;;;20.36;68.35;102012.03;4941299;28;45483;-74
2023/06/23 05:40:56;;;;;;;;;4.00;4.00;;;;;20.43;68.68;102015.31;4935347;28;46742;-71
2023/06/23 05:43:21;;;;;;;;;7.50;5.00;;;;;20.49;68.57;102030.34;4936243;28;45380;-70
2023/06/23 05:45:47;;;;;;;;;8.25;6.75;;;;;20.39;68.79;102013.69;4940837;28;45332;-71
2023/06/23 05:48:16;;;;;;;;;7.00;5.75;;;;;20.50;68.52;102027.56;4940993;28;45374;-71
2023/06/23 05:50:43;;;;;;;;;6.00;5.00;;;;;20.42;68.38;102016.25;4939599;28;45510;-71
2023/06/23 05:53:15;;;;;;;;;6.50;6.50;;;;;20.52;68.56;102030.19;4939894;28;45451;-71
2023/06/23 05:55:50;;;;;;;;;6.75;6.00;;;;;20.49;68.47;102033.06;4940891;28;45458;-71
2023/06/23 05:58:20;;;;;;;;;4.75;4.75;;;;;20.35;68.38;102004.00;4940290;28;45505;-70
2023/06/23 06:00:53;;;;;;;;;6.50;6.50;;;;;20.37;68.81;102018.34;4943096;28;45460;-71
2023/06/23 06:03:22;;;;;;;;;6.75;6.50;;;;;20.21;68.86;101993.00;4938360;28;45565;-70
2023/06/23 06:05:54;;;;;;;;;5.00;5.00;;;;;20.44;69.17;102029.72;4939242;28;45477;-70
2023/06/23 06:08:22;;;;;;;;;6.50;6.00;;;;;20.41;68.88;102030.75;4938893;28;45499;-70
2023/06/23 06:10:48;;;;;;;;;5.25;4.00;;;;;20.49;68.88;102035.78;4921031;28;45465;-71
2023/06/23 06:13:16;;;;;;;;;4.50;4.50;;;;;20.46;69.14;102036.81;4934396;28;46323;-71
2023/06/23 06:15:44;;;;;;;;;5.50;5.50;;;;;20.52;69.08;102044.63;4940354;28;45434;-71
2023/06/23 06:18:12;;;;;;;;;8.00;7.00;;;;;20.47;69.08;102037.72;4952517;28;45644;-72
2023/06/23 06:20:40;;;;;;;;;7.75;7.75;;;;;20.49;68.84;102041.22;4940130;28;45593;-70
2023/06/23 06:23:08;;;;;;;;;4.75;4.75;;;;;20.35;68.76;102014.84;4938084;28;46707;-70
2023/06/23 06:25:35;;;;;;;;;8.00;6.75;;;;;20.50;69.30;102043.84;4938419;28;45465;-71
2023/06/23 06:28:07;;;;;;;;;6.75;4.75;;;;;20.40;69.19;102017.28;4934250;28;45490;-71
2023/06/23 06:30:34;;;;;;;;;6.75;5.75;;;;;20.46;68.95;102030.53;4938077;28;45499;-71
2023/06/23 06:33:01;;;;;;;;;6.75;6.00;;;;;20.60;69.08;102051.47;4926363;28;47174;-70
2023/06/23 06:35:28;;;;;;;;;8.75;7.00;;;;;20.53;69.11;102045.50;4939372;28;45547;-70
2023/06/23 06:37:56;;;;;;;;;10.00;8.00;;;;;20.50;68.90;102038.41;4935424;28;47147;-70
2023/06/23 06:40:23;;;;;;;;;7.25;5.00;;;;;20.51;69.41;102037.47;4940482;28;45427;-70
2023/06/23 06:42:49;;;;;;;;;7.25;6.00;;;;;20.36;69.29;102008.44;4954558;28;47006;-70
2023/06/23 06:45:14;;;;;;;;;8.00;6.50;;;;;20.54;68.91;102041.84;4946840;28;45947;-70
2023/06/23 06:47:43;;;;;;;;;5.75;5.75;;;;;20.62;69.00;102046.84;4937538;28;46065;-70
2023/06/23 06:50:13;;;;;;;;;7.00;7.00;;;;;20.67;68.46;102048.38;4938300;28;45613;-70
2023/06/23 06:52:40;;;;;;;;;6.75;6.75;;;;;20.69;68.82;102045.59;4942762;28;46470;-70
2023/06/23 06:55:09;;;;;;;;;8.00;5.50;;;;;20.71;68.86;102044.56;4940490;28;45578;-70
2023/06/23 06:57:35;;;;;;;;;8.00;8.00;;;;;20.60;68.70;102019.81;4940640;28;45577;-70
2023/06/23 07:00:04;;;;;;;;;6.00;6.00;;;;;20.73;68.88;102048.06;4941608;28;45340;-71
2023/06/23 07:02:31;;;;;;;;;6.25;5.75;;;;;20.79;68.72;102045.97;4934009;28;47250;-70
2023/06/23 07:04:58;;;;;;;;;6.25;5.25;;;;;20.84;69.55;102050.16;4947399;28;45443;-71
2023/06/23 07:07:23;;;;;;;;;6.75;5.00;;;;;20.77;69.04;102032.47;4938507;28;45512;-70
2023/06/23 07:09:48;;;;;;;;;7.50;7.50;;;;;20.78;69.12;102017.06;4938748;28;45834;-71
2023/06/23 07:12:14;;;;;;;;;8.00;6.00;;;;;20.87;69.32;102032.84;4942015;28;49162;-70
2023/06/23 07:14:39;;;;;;;;;6.50;6.50;;;;;20.95;69.23;102038.75;4941479;28;45482;-70
2023/06/23 07:17:05;;;;;;;;;10.00;7.75;;;;;20.96;68.75;102024.19;4942403;28;45361;-70
2023/06/23 07:19:31;;;;;;;;;8.25;6.50;;;;;20.98;68.42;102021.38;4941897;28;45497;-69
2023/06/23 07:21:56;;;;;;;;;6.50;6.50;;;;;21.08;68.94;102031.66;4944225;28;45542;-70
2023/06/23 07:24:21;;;;;;;;;6.00;6.00;;;;;21.08;68.83;102020.81;4942879;28;45477;-76
2023/06/23 07:26:47;;;;;;;;;8.25;7.50;;;;;21.08;68.73;102009.94;4942650;28;46492;-74
2023/06/23 07:29:12;;;;;;;;;6.25;6.25;;;;;21.16;68.78;102017.63;4941670;28;45598;-74
2023/06/23 07:31:38;;;;;;;;;7.00;7.00;;;;;21.20;68.72;102024.66;4942760;28;46459;-74
2023/06/23 07:34:06;;;;;;;;;5.25;4.25;;;;;21.17;68.23;102019.41;4939740;28;45527;-74
2023/06/23 07:36:31;;;;;;;;;7.75;6.00;;;;;21.08;68.79;101993.66;4934819;28;45528;-74
2023/06/23 07:38:57;;;;;;;;;9.75;6.75;;;;;21.29;67.96;102026.81;4940284;28;45304;-74
2023/06/23 07:41:22;;;;;;;;;7.25;7.25;;;;;21.34;68.20;102032.00;4943474;28;45423;-74
2023/06/23 07:43:47;;;;;;;;;8.50;7.00;;;;;21.36;67.68;102029.19;4939358;28;45252;-74
2023/06/23 07:46:12;;;;;;;;;7.75;7.75;;;;;21.45;68.05;102034.09;4940664;28;45362;-74
2023/06/23 07:48:38;;;;;;;;;6.75;6.75;;;;;21.51;66.95;102039.22;4942584;28;45317;-74
2023/06/23 07:51:03;;;;;;;;;8.00;7.50;;;;;21.50;66.73;102031.16;4941517;28;45278;-75
2023/06/23 07:53:28;;;;;;;;;8.00;7.00;;;;;21.48;67.64;102033.06;4942378;28;45272;-74
2023/06/23 07:55:54;;;;;;;;;5.50;5.50;;;;;21.54;67.26;102027.31;4939919;28;45738;-74
2023/06/23 07:58:19;;;;;;;;;6.25;6.25;;;;;21.56;67.21;102019.94;4952775;28;45593;-75
2023/06/23 08:00:44;;;;;;;;;7.00;5.50;;;;;21.73;67.78;102036.09;4941841;28;46468;-74
2023/06/23 08:03:10;;;;;;;;;7.25;7.00;;;;;21.78;67.54;102035.84;4953558;28;45631;-73
2023/06/23 08:05:36;;;;;;;;;6.25;5.50;;;;;21.86;67.42;102041.69;4942071;28;45341;-71
2023/06/23 08:08:01;;;;;;;;;9.50;7.75;;;;;21.91;67.26;102041.44;4939505;28;45447;-73
2023/06/23 08:10:27;;;;;;;;;6.75;6.75;;;;;21.99;66.25;102048.16;4941821;28;46313;-73
2023/06/23 08:12:52;;;;;;;;;5.25;5.25;;;;;21.99;66.66;102041.84;4940844;28;45484;-72
2023/06/23 08:15:17;;;;;;;;;6.50;6.00;;;;;22.03;66.08;102040.69;4930765;28;45438;-71
2023/06/23 08:17:43;;;;;;;;;6.25;5.00;;;;;22.13;66.27;102051.88;4940202;28;45565;-71
2023/06/23 08:20:09;;;;;;;;;10.75;9.00;;;;;22.24;65.88;102064.84;4941056;28;53449;-71
2023/06/23 08:22:34;;;;;;;;;8.00;6.00;;;;;22.30;65.68;102065.38;4941401;28;45880;-71
2023/06/23 08:24:59;;;;;;;;;4.75;4.75;;;;;22.36;64.97;102064.13;4940158;28;45682;-71
2023/06/23 08:27:25;;;;;;;;;3.75;3.75;;;;;22.36;64.94;102055.94;4940244;28;45668;-71
2023/06/23 08:29:50;;;;;;;;;6.25;5.00;;;;;22.47;64.41;102067.06;4926754;28;47038;-71
2023/06/23 08:32:16;;;;;;;;;3.75;3.75;;;;;22.53;64.23;102072.09;4941115;28;45379;-71
2023/06/23 08:34:41;;;;;;;;;8.00;5.50;;;;;22.47;64.76;102053.44;4945332;28;45440;-71
2023/06/23 08:37:07;;;;;;;;;6.25;6.25;;;;;22.60;64.51;102071.72;4941689;28;45409;-71
2023/06/23 08:39:32;;;;;;;;;6.25;5.00;;;;;22.67;63.97;102073.97;4941658;28;45378;-71
2023/06/23 08:41:58;;;;;;;;;7.25;4.25;;;;;22.54;64.29;102043.94;4934897;28;51109;-71
2023/06/23 08:44:25;;;;;;;;;9.00;6.25;;;;;22.79;64.26;102076.88;4930477;28;45550;-66
2023/06/23 08:46:57;;;;;;;;;8.00;7.00;;;;;22.76;64.89;102075.25;4932133;28;47068;-65
2023/06/23 08:49:24;;;;;;;;;8.75;8.00;;;;;22.83;64.12;102075.72;4937683;28;47444;-66
2023/06/23 08:51:53;;;;;;;;;5.00;5.00;;;;;22.80;62.69;102063.19;4936542;28;45324;-66
2023/06/23 08:54:20;;;;;;;;;6.25;5.50;;;;;22.92;62.96;102078.75;4940954;28;45614;-65
2023/06/23 08:56:46;;;;;;;;;4.75;4.75;;;;;22.88;63.27;102060.84;4942491;28;45796;-66
2023/06/23 08:59:12;;;;;;;;;6.00;4.75;;;;;22.94;62.99;102057.75;4922930;28;47696;-71
2023/06/23 09:01:37;;;;;;;;;7.25;6.00;;;;;23.01;61.91;102065.53;4937153;28;45331;-71
2023/06/23 09:04:03;;;;;;;;;4.50;3.00;;;;;22.96;62.14;102054.06;4941695;28;45312;-71
2023/06/23 09:06:28;;;;;;;;;6.00;5.00;;;;;23.08;62.37;102075.94;4940511;28;45280;-70
2023/06/23 09:08:54;;;;;;;;;7.00;7.00;;;;;23.18;62.51;102075.38;4940085;28;45423;-71
2023/06/23 09:11:20;;;;;;;;;4.00;4.00;;;;;23.25;62.22;102084.88;4935042;28;45452;-71
2023/06/23 09:13:45;;;;;;;;;5.25;5.25;;;;;23.31;61.94;102093.53;4941173;28;45447;-71
2023/06/23 09:16:12;;;;;;;;;6.25;5.00;;;;;23.38;61.94;102090.41;4940863;28;45322;-71
2023/06/23 09:18:41;;;;;;;;;5.00;5.00;;;;;23.41;61.71;102080.19;4945487;28;45716;-71
2023/06/23 09:21:07;;;;;;;;;6.00;6.00;;;;;23.43;62.24;102082.81;4953526;28;45840;-71
2023/06/23 09:23:34;;;;;;;;;6.00;6.00;;;;;23.45;61.62;102087.16;4938794;28;45351;-70
2023/06/23 09:26:04;;;;;;;;;5.00;5.00;;;;;23.54;61.60;102093.88;4940592;28;45590;-71
2023/06/23 09:28:32;;;;;;;;;12.50;10.75;;;;;23.60;61.96;102100.75;4937131;28;46110;-71
2023/06/23 09:30:59;;;;;;;;;8.00;5.00;;;;;23.64;62.08;102099.59;4939764;28;45463;-71
2023/06/23 09:33:25;;;;;;;;;7.50;7.50;;;;;23.68;62.07;102092.94;4941123;28;45391;-71
2023/06/23 09:35:55;;;;;;;;;5.00;5.00;;;;;23.74;62.15;102099.84;4940835;28;45338;-71
2023/06/23 09:38:25;;;;;;;;;5.00;5.00;;;;;23.72;60.89;102091.75;4940462;28;45317;-71
2023/06/23 09:41:10;;;;;;;;;6.00;5.00;;;;;23.79;60.57;102094.94;4934245;28;45404;-71
2023/06/23 09:43:41;;;;;;;;;4.00;4.00;;;;;23.65;60.74;102063.16;4938789;28;45361;-71
2023/06/23 09:46:08;;;;;;;;;2.25;2.25;;;;;23.86;60.39;102090.88;4940992;28;45502;-71
2023/06/23 09:48:33;;;;;;;;;7.00;6.25;;;;;23.82;61.08;102078.41;4939587;28;45372;-71
2023/06/23 09:51:00;;;;;;;;;5.00;4.00;;;;;23.93;59.92;102083.16;4939850;28;45407;-71
2023/06/23 09:53:29;;;;;;;;;5.00;5.00;;;;;23.92;60.32;102074.09;4940713;28;45438;-70
2023/06/23 09:55:55;;;;;;;;;14.75;14.75;;;;;24.00;59.51;102082.63;4940499;28;45458;-71
2023/06/23 09:58:21;;;;;;;;;6.00;6.00;;;;;24.02;60.27;102079.78;4938722;28;55600;-71
2023/06/23 10:00:46;;;;;;;;;3.25;3.25;;;;;24.05;59.49;102069.53;4941438;28;45434;-71
2023/06/23 10:03:12;;;;;;;;;7.00;5.75;;;;;24.16;59.79;102079.72;4944675;28;45607;-71
2023/06/23 10:05:38;;;;;;;;;7.25;5.50;;;;;24.22;59.55;102072.97;4943737;28;45391;-71
2023/06/23 10:08:12;;;;;;;;;5.50;5.25;;;;;24.22;58.70;102071.13;4935410;28;47164;-71
2023/06/23 10:10:43;;;;;;;;;5.75;4.75;;;;;24.26;58.99;102073.63;4937453;28;45510;-71
2023/06/23 10:13:09;;;;;;;;;3.25;2.00;;;;;24.29;59.38;102076.16;4949279;28;45330;-71
2023/06/23 10:15:35;;;;;;;;;6.00;6.00;;;;;24.28;58.36;102056.19;4929094;28;45605;-71
2023/06/23 10:18:01;;;;;;;;;6.25;5.00;;;;;24.35;58.02;102064.81;4934290;28;46240;-71
2023/06/23 10:20:26;;;;;;;;;5.50;5.00;;;;;24.32;57.68;102052.25;4940205;28;45602;-71
2023/06/23 10:22:55;;;;;;;;;6.25;6.25;;;;;24.34;57.74;102061.22;4941975;28;45405;-71
2023/06/23 10:25:21;;;;;;;;;5.50;5.50;;;;;24.40;57.95;102060.75;4939464;28;45372;-71
2023/06/23 10:27:50;;;;;;;;;5.25;5.25;;;;;24.42;57.00;102063.38;4934224;28;48133;-71
2023/06/23 10:30:17;;;;;;;;;5.00;5.00;;;;;24.49;57.71;102072.91;4934900;28;45745;-71
2023/06/23 10:32:55;;;;;;;;;4.75;4.75;;;;;24.48;56.83;102054.78;4937411;28;45364;-71
2023/06/23 10:35:22;;;;;;;;;6.00;6.00;;;;;24.51;56.22;102054.56;4942448;28;45560;-71
2023/06/23 10:37:49;;;;;;;;;4.00;4.00;;;;;24.55;56.38;102058.84;4938505;28;45449;-71
2023/06/23 10:40:19;;;;;;;;;3.75;3.75;;;;;24.60;56.59;102053.94;4938349;28;45464;-71
2023/06/23 10:42:48;;;;;;;;;5.00;5.00;;;;;24.59;55.83;102041.28;4951302;28;45407;-71
2023/06/23 10:45:13;;;;;;;;;4.00;4.00;;;;;24.60;56.93;102044.88;4935617;28;45608;-71
2023/06/23 10:47:39;;;;;;;;;3.25;3.25;;;;;24.63;56.45;102052.84;4938470;28;46287;-71
2023/06/23 10:50:07;;;;;;;;;5.75;5.00;;;;;24.71;55.04;102061.38;4939278;28;45754;-71
2023/06/23 10:52:33;;;;;;;;;5.25;5.25;;;;;24.72;55.69;102048.59;4940400;28;45371;-71
2023/06/23 10:54:58;;;;;;;;;5.00;5.00;;;;;24.83;54.98;102066.94;4943372;28;45668;-71
2023/06/23 10:57:24;;;;;;;;;4.50;4.50;;;;;24.86;55.82;102062.13;4938832;28;46236;-71
2023/06/23 11:00:05;;;;;;;;;4.50;4.00;;;;;24.92;54.52;102064.41;4937918;28;45287;-71
2023/06/23 11:02:50;;;;;;;;;5.00;4.25;;;;;24.97;54.09;102066.78;4928880;28;45428;-71
2023/06/23 11:05:16;;;;;;;;;7.00;4.75;;;;;24.95;52.92;102057.84;4949513;28;45618;-71
2023/06/23 11:08:02;;;;;;;;;7.00;4.50;;;;;24.99;53.95;102063.97;4930253;28;46492;-71
2023/06/23 11:11:04;;;;;;;;;6.00;4.50;;;;;25.06;54.26;102062.50;4926571;28;45356;-71
2023/06/23 11:13:35;;;;;;;;;4.75;4.75;;;;;25.10;53.36;102067.66;4881145;29;45630;-71
2023/06/23 11:16:02;;;;;;;;;6.25;5.50;;;;;25.13;53.40;102069.31;4931360;28;45564;-71
2023/06/23 11:18:27;;;;;;;;;5.50;5.50;;;;;25.15;53.26;102062.72;4939777;28;46155;-71
2023/06/23 11:20:54;;;;;;;;;4.25;4.25;;;;;25.22;53.53;102065.00;4933614;28;45438;-71
2023/06/23 11:23:20;;;;;;;;;5.75;5.75;;;;;25.19;52.94;102054.31;4939823;28;45404;-70
2023/06/23 11:25:51;;;;;;;;;5.25;5.25;;;;;25.21;52.37;102055.06;4932698;28;45545;-71
2023/06/23 11:28:36;;;;;;;;;5.75;5.00;;;;;25.25;53.01;102065.66;4922883;28;46341;-71
2023/06/23 11:31:13;;;;;;;;;5.00;5.00;;;;;25.21;53.01;102049.59;4936260;28;45522;-71